Time;durP1;ratioP1;P1;durP2;ratioP2;P2;SDS_P1;SDS_P2;PMS_P1;PMS_P2;Temp;Humidity;BMP_temperature;BMP_pressure;BME280_temperature;BME280_humidity;BME280_pressure;Samples;Min_cycle;Max_cycle;Signal;HPM_P1;HPM_P2
2023/07/04 00:01:12;;;;;;;16.67;13.27;;;23.80;96.20;;;;;;5044757;28;20209;-67
2023/07/04 00:03:41;;;;;;;11.93;10.57;;;23.80;96.10;;;;;;5041286;28;20231;-67
2023/07/04 00:06:11;;;;;;;10.10;9.10;;;23.70;96.00;;;;;;5040432;28;20279;-66
2023/07/04 00:08:41;;;;;;;4.97;3.00;;;23.70;95.90;;;;;;5043452;28;20272;-66
2023/07/04 00:11:08;;;;;;;5.70;3.40;;;23.60;92.40;;;;;;5045421;28;20285;-67
2023/07/04 00:13:37;;;;;;;3.43;2.97;;;23.30;91.60;;;;;;5046739;28;20224;-66
2023/07/04 00:16:09;;;;;;;5.20;3.03;;;23.00;91.40;;;;;;5042060;28;20202;-66
2023/07/04 00:18:36;;;;;;;4.20;2.97;;;22.70;91.60;;;;;;5045513;28;20289;-67
2023/07/04 00:21:11;;;;;;;4.87;2.17;;;22.50;91.80;;;;;;5043404;28;20608;-67
2023/07/04 00:23:41;;;;;;;3.97;2.30;;;22.30;91.70;;;;;;5041472;28;20213;-66
2023/07/04 00:26:08;;;;;;;4.13;2.80;;;22.00;91.70;;;;;;5040456;28;20251;-66
2023/07/04 00:28:38;;;;;;;3.30;2.00;;;21.70;92.00;;;;;;5038584;28;20199;-66
2023/07/04 00:31:07;;;;;;;4.23;1.77;;;21.50;92.00;;;;;;5040879;28;20293;-64
2023/07/04 00:33:35;;;;;;;2.93;1.07;;;21.40;91.50;;;;;;5041626;28;20206;-66
2023/07/04 00:36:05;;;;;;;2.10;1.07;;;21.10;90.60;;;;;;5043923;28;20211;-66
2023/07/04 00:38:36;;;;;;;4.97;1.10;;;20.90;90.70;;;;;;5042882;28;20199;-66
2023/07/04 00:41:13;;;;;;;5.23;1.20;;;20.80;90.80;;;;;;5038607;28;20658;-66
2023/07/04 00:44:19;;;;;;;3.03;1.70;;;20.60;91.00;;;;;;5041898;28;20252;-65
2023/07/04 00:47:06;;;;;;;1.80;1.40;;;20.50;90.90;;;;;;5029132;28;20288;-66
2023/07/04 00:49:42;;;;;;;1.83;1.20;;;20.30;91.30;;;;;;5045409;28;20577;-66
2023/07/04 00:52:26;;;;;;;3.10;1.30;;;20.30;91.70;;;;;;5041033;28;20202;-65
2023/07/04 00:55:09;;;;;;;23.23;2.70;;;20.20;91.80;;;;;;5034748;28;20282;-66
2023/07/04 00:57:38;;;;;;;5.33;1.73;;;20.20;91.80;;;;;;5043590;28;20645;-65
2023/07/04 01:00:20;;;;;;;2.17;1.10;;;20.10;92.00;;;;;;5042713;28;20555;-65
2023/07/04 01:02:50;;;;;;;3.50;1.57;;;20.10;92.10;;;;;;5022972;28;20217;-65
2023/07/04 01:05:33;;;;;;;2.43;1.60;;;20.10;92.30;;;;;;5040343;28;20280;-65
2023/07/04 01:08:09;;;;;;;2.80;1.50;;;20.00;92.40;;;;;;5045664;28;20197;-66
2023/07/04 01:10:43;;;;;;;2.93;1.50;;;20.10;92.40;;;;;;5035944;28;20221;-65
2023/07/04 01:13:36;;;;;;;1.77;1.40;;;20.10;92.40;;;;;;5034463;28;20253;-65
2023/07/04 01:16:17;;;;;;;6.20;1.20;;;20.10;92.40;;;;;;5039720;28;20533;-66
2023/07/04 01:18:48;;;;;;;3.37;1.20;;;20.20;92.40;;;;;;5030914;28;20301;-65
2023/07/04 01:21:18;;;;;;;1.80;1.27;;;20.20;92.30;;;;;;5045767;28;20208;-65
2023/07/04 01:23:54;;;;;;;4.63;1.77;;;20.30;92.30;;;;;;5046549;28;20285;-66
2023/07/04 01:26:37;;;;;;;3.27;1.67;;;20.30;92.30;;;;;;5030122;28;20234;-65
2023/07/04 01:29:08;;;;;;;1.90;1.20;;;20.30;92.20;;;;;;5045601;28;20214;-65
2023/07/04 01:31:36;;;;;;;2.13;1.40;;;20.40;92.20;;;;;;5045456;28;20224;-66
2023/07/04 01:34:05;;;;;;;4.03;1.67;;;20.50;92.20;;;;;;5043059;28;20248;-66
2023/07/04 01:36:35;;;;;;;2.63;1.43;;;20.50;92.20;;;;;;5040990;28;20563;-65
2023/07/04 01:39:03;;;;;;;1.73;1.60;;;20.50;92.20;;;;;;5040728;28;20204;-66
2023/07/04 01:41:30;;;;;;;4.03;1.70;;;20.60;92.20;;;;;;5032483;28;20783;-65
2023/07/04 01:44:06;;;;;;;4.63;1.87;;;20.60;92.10;;;;;;5043807;28;20198;-66
2023/07/04 01:46:35;;;;;;;3.27;1.73;;;20.60;92.10;;;;;;5046589;28;20390;-65
2023/07/04 01:49:05;;;;;;;2.73;1.77;;;20.70;92.20;;;;;;5033763;28;20210;-66
2023/07/04 01:51:38;;;;;;;4.13;2.10;;;20.70;92.20;;;;;;5057369;28;20235;-65
2023/07/04 01:54:06;;;;;;;2.20;1.37;;;20.70;92.20;;;;;;5034256;28;20219;-65
2023/07/04 01:56:36;;;;;;;1.90;1.80;;;20.70;92.50;;;;;;5034609;28;20303;-65
2023/07/04 01:59:04;;;;;;;4.07;1.70;;;20.70;92.70;;;;;;5026218;28;20210;-66
2023/07/04 02:01:35;;;;;;;6.57;2.83;;;20.70;92.90;;;;;;5044198;28;20239;-65
2023/07/04 02:04:02;;;;;;;4.30;1.60;;;20.70;92.90;;;;;;5044069;28;20634;-65
2023/07/04 02:06:29;;;;;;;3.90;1.93;;;20.70;92.90;;;;;;5042816;28;20688;-66
2023/07/04 02:08:57;;;;;;;2.33;1.80;;;20.70;93.00;;;;;;5043840;28;20285;-65
2023/07/04 02:11:24;;;;;;;2.87;1.80;;;20.60;93.00;;;;;;5044998;28;20578;-65
2023/07/04 02:13:51;;;;;;;2.67;1.57;;;20.60;92.90;;;;;;5041190;28;20667;-65
2023/07/04 02:16:18;;;;;;;5.57;1.97;;;20.70;93.00;;;;;;5038468;28;20197;-65
2023/07/04 02:18:45;;;;;;;2.60;1.70;;;20.70;93.10;;;;;;5041552;28;20282;-65
2023/07/04 02:21:13;;;;;;;3.27;1.60;;;20.70;93.10;;;;;;5046187;28;20290;-65
2023/07/04 02:23:40;;;;;;;5.17;1.97;;;20.60;93.10;;;;;;5042146;28;20237;-65
2023/07/04 02:26:07;;;;;;;3.00;1.77;;;20.60;93.20;;;;;;5049143;28;20305;-65
2023/07/04 02:28:36;;;;;;;2.97;1.90;;;20.60;93.20;;;;;;5046006;28;20681;-65
2023/07/04 02:31:03;;;;;;;7.97;2.17;;;20.60;93.20;;;;;;5047106;28;20252;-66
2023/07/04 02:33:31;;;;;;;4.17;1.70;;;20.60;93.10;;;;;;5033606;28;20203;-65
2023/07/04 02:36:02;;;;;;;5.20;1.60;;;20.50;93.10;;;;;;5033404;28;20656;-65
2023/07/04 02:38:29;;;;;;;5.63;1.97;;;20.50;93.10;;;;;;5028457;28;20207;-65
2023/07/04 02:40:56;;;;;;;3.47;1.90;;;20.60;93.00;;;;;;5031295;28;20677;-65
2023/07/04 02:43:23;;;;;;;3.00;1.60;;;20.60;93.00;;;;;;5031989;28;20309;-65
2023/07/04 02:45:51;;;;;;;12.00;2.63;;;20.60;93.00;;;;;;5028254;28;20289;-65
2023/07/04 02:48:19;;;;;;;9.63;1.83;;;20.60;92.90;;;;;;5038407;28;20211;-65
2023/07/04 02:50:47;;;;;;;9.00;2.17;;;20.60;92.80;;;;;;5041567;28;20193;-66
2023/07/04 02:53:20;;;;;;;6.57;2.27;;;20.60;92.50;;;;;;5032081;28;20214;-66
2023/07/04 02:55:49;;;;;;;6.43;2.87;;;20.50;92.30;;;;;;5042738;28;20218;-65
2023/07/04 02:58:19;;;;;;;5.60;1.60;;;20.50;92.30;;;;;;5027254;28;20241;-66
2023/07/04 03:00:49;;;;;;;5.77;1.60;;;20.40;92.30;;;;;;5047641;28;20205;-66
2023/07/04 03:03:21;;;;;;;9.97;1.97;;;20.30;92.50;;;;;;5066223;28;20287;-65
2023/07/04 03:05:50;;;;;;;12.90;1.60;;;20.20;92.60;;;;;;5044767;28;20217;-65
2023/07/04 03:08:17;;;;;;;5.90;1.63;;;20.20;92.80;;;;;;5031539;28;20201;-65
2023/07/04 03:10:46;;;;;;;4.80;1.97;;;20.10;93.00;;;;;;5056653;28;20221;-65
2023/07/04 03:13:17;;;;;;;5.27;2.07;;;20.10;93.10;;;;;;5024378;28;20298;-65
2023/07/04 03:15:44;;;;;;;9.43;1.97;;;20.20;93.20;;;;;;5026504;28;20594;-65
2023/07/04 03:18:11;;;;;;;4.83;2.00;;;20.20;93.30;;;;;;5041571;28;20286;-66
2023/07/04 03:20:40;;;;;;;6.17;1.83;;;20.20;93.30;;;;;;5060977;28;20220;-65
2023/07/04 03:23:08;;;;;;;5.63;1.80;;;20.10;93.20;;;;;;5023161;28;20224;-65
2023/07/04 03:25:36;;;;;;;4.23;2.07;;;20.10;93.20;;;;;;5027177;28;20242;-65
2023/07/04 03:28:04;;;;;;;4.13;1.87;;;20.10;93.30;;;;;;5023127;28;20241;-65
2023/07/04 03:30:31;;;;;;;3.37;1.83;;;20.10;93.40;;;;;;5032304;28;20233;-66
2023/07/04 03:33:05;;;;;;;8.17;2.80;;;20.10;93.40;;;;;;5031583;28;20198;-66
2023/07/04 03:35:40;;;;;;;6.17;1.90;;;20.10;93.30;;;;;;5043286;28;20240;-66
2023/07/04 03:38:26;;;;;;;2.60;1.60;;;20.00;93.40;;;;;;5036849;28;20302;-65
2023/07/04 03:40:53;;;;;;;8.63;2.10;;;20.00;93.50;;;;;;5027786;28;20225;-66
2023/07/04 03:43:23;;;;;;;3.93;2.03;;;20.00;93.50;;;;;;5027605;28;20230;-65
2023/07/04 03:45:50;;;;;;;4.53;2.10;;;20.00;93.50;;;;;;5040413;28;20198;-66
2023/07/04 03:48:22;;;;;;;9.53;1.63;;;19.90;93.50;;;;;;5026895;28;20298;-66
2023/07/04 03:50:50;;;;;;;6.77;2.00;;;19.90;93.50;;;;;;5031647;28;20709;-66
2023/07/04 03:53:18;;;;;;;7.40;2.43;;;19.90;93.50;;;;;;5038862;28;20289;-65
2023/07/04 03:55:49;;;;;;;3.33;2.17;;;19.90;93.50;;;;;;5030087;28;20660;-66
2023/07/04 03:58:18;;;;;;;4.17;2.83;;;19.80;93.60;;;;;;5028664;28;20293;-66
2023/07/04 04:00:46;;;;;;;4.53;2.50;;;19.80;93.70;;;;;;5022784;28;20642;-66
2023/07/04 04:03:14;;;;;;;6.20;2.53;;;19.80;93.70;;;;;;5044805;28;20556;-66
2023/07/04 04:05:42;;;;;;;4.40;2.53;;;19.80;93.90;;;;;;5040105;28;20500;-66
2023/07/04 04:08:09;;;;;;;4.00;2.03;;;19.80;93.90;;;;;;5042034;28;20201;-66
2023/07/04 04:10:36;;;;;;;6.83;2.70;;;19.80;93.90;;;;;;5039377;28;20706;-66
2023/07/04 04:13:03;;;;;;;6.10;2.80;;;19.80;93.90;;;;;;5037258;28;20548;-67
2023/07/04 04:15:31;;;;;;;3.03;2.50;;;19.90;93.90;;;;;;5038581;28;20206;-66
2023/07/04 04:17:58;;;;;;;5.00;2.93;;;19.90;93.90;;;;;;5045539;28;20203;-66
2023/07/04 04:20:25;;;;;;;6.17;2.57;;;19.90;93.90;;;;;;5043242;28;20206;-66
2023/07/04 04:22:53;;;;;;;5.23;2.87;;;19.90;93.90;;;;;;5041413;28;20290;-66
2023/07/04 04:25:22;;;;;;;4.87;2.90;;;20.00;93.90;;;;;;5041629;28;20203;-66
2023/07/04 04:27:49;;;;;;;5.90;3.20;;;20.00;93.80;;;;;;5043046;28;21171;-66
2023/07/04 04:30:16;;;;;;;7.00;3.07;;;20.10;93.90;;;;;;5051651;28;20209;-66
2023/07/04 04:32:44;;;;;;;7.77;3.60;;;20.10;93.90;;;;;;5042761;28;20210;-66
2023/07/04 04:35:13;;;;;;;6.07;3.97;;;20.20;93.70;;;;;;5050707;28;20201;-66
2023/07/04 04:37:40;;;;;;;6.17;4.87;;;20.20;93.70;;;;;;5043464;28;20200;-66
2023/07/04 04:40:08;;;;;;;6.87;4.13;;;20.30;93.70;;;;;;5042088;28;20517;-66
2023/07/04 04:42:35;;;;;;;11.17;5.10;;;20.30;93.70;;;;;;5046294;28;20226;-66
2023/07/04 04:45:03;;;;;;;7.80;4.67;;;20.40;93.80;;;;;;5045335;28;20724;-66
2023/07/04 04:47:33;;;;;;;10.43;4.90;;;20.40;93.80;;;;;;5043353;28;20203;-66
2023/07/04 04:50:01;;;;;;;8.07;4.37;;;20.40;93.80;;;;;;5041513;28;20201;-66
2023/07/04 04:52:31;;;;;;;7.13;4.30;;;20.50;93.80;;;;;;5041370;28;20194;-66
2023/07/04 04:55:03;;;;;;;5.50;4.17;;;20.50;93.80;;;;;;5046055;28;20226;-66
2023/07/04 04:57:30;;;;;;;8.23;4.33;;;20.60;93.90;;;;;;5045709;28;20285;-66
2023/07/04 04:59:59;;;;;;;7.23;4.20;;;20.60;94.00;;;;;;5042276;28;20644;-66
2023/07/04 05:02:29;;;;;;;6.60;4.07;;;20.70;94.10;;;;;;5046122;28;20218;-66
2023/07/04 05:04:59;;;;;;;5.70;4.67;;;20.80;94.10;;;;;;5044024;28;20568;-66
2023/07/04 05:07:27;;;;;;;8.77;4.73;;;20.80;94.00;;;;;;5046128;28;20205;-66
2023/07/04 05:09:55;;;;;;;5.80;4.63;;;20.80;94.10;;;;;;5047124;28;20676;-66
2023/07/04 05:12:22;;;;;;;8.20;3.90;;;21.00;94.10;;;;;;5036603;28;20699;-66
2023/07/04 05:14:49;;;;;;;8.40;5.13;;;21.10;94.10;;;;;;5042870;28;20241;-66
2023/07/04 05:17:17;;;;;;;6.07;4.23;;;21.10;94.10;;;;;;5050256;28;20201;-66
2023/07/04 05:19:48;;;;;;;6.83;4.43;;;21.20;94.10;;;;;;5046296;28;20218;-66
2023/07/04 05:22:16;;;;;;;9.13;3.77;;;21.20;94.10;;;;;;5046661;28;20211;-66
2023/07/04 05:24:43;;;;;;;7.20;4.13;;;21.30;94.10;;;;;;5041387;28;20264;-66
2023/07/04 05:27:10;;;;;;;6.37;3.40;;;21.30;94.10;;;;;;5037621;28;20239;-66
2023/07/04 05:29:37;;;;;;;5.00;3.77;;;21.30;94.20;;;;;;5046099;28;20590;-66
2023/07/04 05:32:08;;;;;;;5.87;3.70;;;21.40;94.30;;;;;;5046006;28;20267;-66
2023/07/04 05:34:35;;;;;;;7.17;3.73;;;21.50;94.30;;;;;;5041596;28;20218;-66
2023/07/04 05:37:03;;;;;;;7.43;3.83;;;21.70;94.20;;;;;;5040130;28;20199;-66
2023/07/04 05:39:30;;;;;;;5.20;3.40;;;21.70;94.10;;;;;;5043863;28;20209;-66
2023/07/04 05:41:57;;;;;;;11.70;4.00;;;21.80;94.00;;;;;;5044171;28;20537;-66
2023/07/04 05:44:24;;;;;;;5.93;3.87;;;22.00;94.00;;;;;;5044006;28;20219;-65
2023/07/04 05:46:54;;;;;;;4.73;3.23;;;22.10;93.90;;;;;;5046589;28;20499;-66
2023/07/04 05:49:22;;;;;;;6.13;3.53;;;22.30;93.90;;;;;;5032361;28;20187;-65
2023/07/04 05:51:49;;;;;;;5.43;2.60;;;22.40;93.70;;;;;;5042208;28;20209;-65
2023/07/04 05:54:16;;;;;;;6.47;3.10;;;22.60;93.60;;;;;;5042085;28;20203;-65
2023/07/04 05:56:43;;;;;;;3.97;3.03;;;22.70;93.30;;;;;;5042207;28;20214;-65
2023/07/04 05:59:10;;;;;;;8.30;2.77;;;22.80;93.10;;;;;;5030498;28;20199;-66
2023/07/04 06:01:43;;;;;;;9.60;3.13;;;22.90;92.80;;;;;;5042276;28;20646;-65
2023/07/04 06:04:11;;;;;;;5.97;2.70;;;23.00;92.60;;;;;;5041257;28;20293;-65
2023/07/04 06:06:51;;;;;;;8.97;3.10;;;23.20;92.60;;;;;;5041758;28;20653;-65
2023/07/04 06:09:19;;;;;;;6.77;3.23;;;23.20;92.40;;;;;;5046759;28;20277;-65
2023/07/04 06:11:48;;;;;;;6.20;3.30;;;23.30;92.20;;;;;;5041730;28;20226;-65
2023/07/04 06:14:24;;;;;;;5.53;3.20;;;23.40;92.00;;;;;;5036331;28;20215;-65
2023/07/04 06:16:51;;;;;;;3.63;2.90;;;23.40;91.90;;;;;;5039094;28;20203;-65
2023/07/04 06:19:21;;;;;;;4.93;3.40;;;23.40;91.80;;;;;;5043130;28;20545;-65
2023/07/04 06:21:51;;;;;;;4.17;3.43;;;23.50;91.60;;;;;;5043709;28;20774;-65
2023/07/04 06:24:20;;;;;;;4.50;3.13;;;23.60;91.50;;;;;;5041918;28;20243;-66
2023/07/04 06:26:48;;;;;;;4.30;3.07;;;23.60;91.40;;;;;;5036040;28;20249;-65
2023/07/04 06:29:15;;;;;;;8.53;2.83;;;23.70;91.10;;;;;;5041930;28;20529;-65
2023/07/04 06:31:48;;;;;;;2.80;2.60;;;23.80;90.80;;;;;;5044137;28;20265;-65
2023/07/04 06:34:15;;;;;;;8.03;2.40;;;23.90;90.80;;;;;;5044554;28;20760;-65
2023/07/04 06:36:48;;;;;;;5.87;2.40;;;24.00;90.40;;;;;;5043568;28;20675;-64
2023/07/04 06:39:15;;;;;;;3.47;2.63;;;24.10;90.00;;;;;;5038979;28;20744;-65
2023/07/04 06:41:42;;;;;;;5.93;2.63;;;24.10;89.20;;;;;;5040977;28;20688;-65
2023/07/04 06:44:09;;;;;;;3.67;1.97;;;24.20;89.10;;;;;;5041858;28;20214;-65
2023/07/04 06:46:36;;;;;;;3.10;2.13;;;24.20;88.40;;;;;;5042334;28;20263;-65
2023/07/04 06:49:05;;;;;;;4.17;1.83;;;24.30;88.40;;;;;;5041915;28;20199;-64
2023/07/04 06:51:33;;;;;;;5.70;2.30;;;24.50;88.30;;;;;;5039701;28;20600;-64
2023/07/04 06:54:01;;;;;;;4.83;2.07;;;24.50;87.80;;;;;;5040471;28;20245;-64
2023/07/04 06:56:30;;;;;;;10.60;2.90;;;24.70;87.80;;;;;;5044166;28;20192;-64
2023/07/04 06:58:58;;;;;;;4.03;2.60;;;24.80;87.20;;;;;;5040188;28;20199;-64
2023/07/04 07:01:28;;;;;;;2.60;2.40;;;24.90;86.40;;;;;;5046451;28;20234;-64
2023/07/04 07:03:56;;;;;;;4.70;2.23;;;25.00;85.90;;;;;;5043896;28;20225;-64
2023/07/04 07:06:25;;;;;;;5.40;2.30;;;25.10;85.30;;;;;;5039630;28;20200;-64
2023/07/04 07:08:52;;;;;;;4.10;2.10;;;25.20;85.10;;;;;;5043051;28;20504;-64
2023/07/04 07:11:21;;;;;;;6.17;2.20;;;25.30;84.50;;;;;;5038666;28;20254;-64
2023/07/04 07:13:49;;;;;;;6.00;2.57;;;25.40;84.40;;;;;;5037761;28;20299;-64
2023/07/04 07:16:19;;;;;;;2.13;1.70;;;25.60;84.90;;;;;;5039658;28;20658;-64
2023/07/04 07:18:48;;;;;;;4.50;2.53;;;25.70;84.70;;;;;;5040741;28;20203;-64
2023/07/04 07:21:19;;;;;;;3.63;2.10;;;25.90;84.70;;;;;;5039832;28;20267;-64
2023/07/04 07:23:48;;;;;;;5.27;2.40;;;26.00;83.20;;;;;;5043644;28;20647;-64
2023/07/04 07:26:23;;;;;;;7.27;2.10;;;26.10;82.60;;;;;;5038361;28;20251;-64
2023/07/04 07:28:50;;;;;;;4.30;2.40;;;26.20;82.20;;;;;;5044144;28;20202;-64
2023/07/04 07:31:20;;;;;;;3.97;2.00;;;26.30;80.20;;;;;;5043681;28;20207;-64
2023/07/04 07:33:48;;;;;;;4.83;1.70;;;26.30;79.90;;;;;;5041330;28;20688;-64
2023/07/04 07:36:26;;;;;;;3.13;1.97;;;26.40;80.00;;;;;;5038646;28;20209;-64
2023/07/04 07:38:56;;;;;;;4.70;2.23;;;26.50;80.00;;;;;;5042361;28;20206;-63
2023/07/04 07:41:32;;;;;;;3.30;1.70;;;26.60;79.30;;;;;;5040469;28;20215;-64
2023/07/04 07:44:01;;;;;;;4.60;1.50;;;26.70;78.80;;;;;;5042065;28;20221;-65
2023/07/04 07:46:31;;;;;;;6.80;2.00;;;26.80;78.80;;;;;;5034714;28;20206;-64
2023/07/04 07:49:01;;;;;;;1.90;1.50;;;27.00;78.50;;;;;;5039042;28;20212;-63
2023/07/04 07:51:29;;;;;;;6.30;2.07;;;27.10;76.80;;;;;;5041597;28;20641;-64
2023/07/04 07:53:57;;;;;;;2.20;1.70;;;27.20;77.20;;;;;;5038939;28;20209;-63
2023/07/04 07:56:29;;;;;;;1.90;1.27;;;27.40;75.50;;;;;;5040439;28;20212;-64
2023/07/04 07:58:59;;;;;;;4.33;1.87;;;27.50;76.00;;;;;;5044335;28;20218;-64
2023/07/04 08:01:30;;;;;;;2.40;1.20;;;27.60;75.90;;;;;;5041923;28;20206;-63
2023/07/04 08:03:58;;;;;;;3.23;1.10;;;27.70;74.70;;;;;;5031353;28;20651;-63
2023/07/04 08:06:34;;;;;;;3.50;1.70;;;27.70;75.20;;;;;;5039416;28;20202;-64
2023/07/04 08:09:04;;;;;;;5.03;2.03;;;27.70;74.50;;;;;;5038867;28;20225;-64
2023/07/04 08:11:32;;;;;;;2.20;1.37;;;27.80;73.80;;;;;;5040720;28;20470;-64
2023/07/04 08:13:59;;;;;;;4.87;1.87;;;27.90;73.70;;;;;;5018799;28;20203;-64
2023/07/04 08:16:49;;;;;;;1.60;1.43;;;27.90;73.50;;;;;;5036279;28;20202;-64
2023/07/04 08:19:19;;;;;;;3.87;2.17;;;28.00;72.90;;;;;;5039562;28;20203;-64
2023/07/04 08:21:46;;;;;;;3.80;1.80;;;28.10;72.00;;;;;;5039584;28;20226;-64
2023/07/04 08:24:15;;;;;;;2.67;1.57;;;28.10;71.50;;;;;;5039291;28;20229;-62
2023/07/04 08:26:44;;;;;;;3.87;1.50;;;28.10;70.20;;;;;;5039356;28;20635;-64
2023/07/04 08:29:12;;;;;;;2.33;1.37;;;28.10;69.20;;;;;;5044714;28;20195;-61
2023/07/04 08:31:39;;;;;;;2.67;1.10;;;28.10;69.60;;;;;;5039274;28;20206;-63
2023/07/04 08:34:07;;;;;;;4.03;1.50;;;28.10;68.70;;;;;;5042869;28;20541;-62
2023/07/04 08:36:34;;;;;;;3.90;1.20;;;28.20;69.10;;;;;;5042504;28;20442;-61
2023/07/04 08:39:04;;;;;;;5.27;1.40;;;28.30;68.20;;;;;;5046086;28;20210;-62
2023/07/04 08:41:53;;;;;;;3.63;1.20;;;28.30;68.80;;;;;;5043523;28;20214;-63
2023/07/04 08:44:22;;;;;;;4.80;1.40;;;28.40;68.70;;;;;;5041252;28;20246;-61
2023/07/04 08:46:58;;;;;;;3.20;1.60;;;28.60;69.20;;;;;;5040805;28;20210;-64
2023/07/04 08:49:46;;;;;;;3.10;1.70;;;28.60;69.20;;;;;;5039752;28;20649;-62
2023/07/04 08:52:25;;;;;;;2.03;1.53;;;28.80;69.80;;;;;;5037568;28;20264;-62
2023/07/04 08:54:54;;;;;;;2.93;1.60;;;28.90;69.80;;;;;;5039330;28;20285;-63
2023/07/04 08:57:37;;;;;;;5.27;1.70;;;29.10;69.10;;;;;;5044813;28;20530;-62
2023/07/04 09:00:17;;;;;;;3.17;1.80;;;29.10;68.40;;;;;;5037591;28;20257;-61
2023/07/04 09:02:54;;;;;;;2.77;1.30;;;29.20;67.70;;;;;;5044204;28;20203;-62
2023/07/04 09:06:05;;;;;;;3.30;1.40;;;29.20;67.00;;;;;;5038156;28;20230;-63
2023/07/04 09:08:45;;;;;;;3.47;1.87;;;29.10;67.20;;;;;;5015093;28;20206;-62
2023/07/04 09:11:14;;;;;;;1.37;1.27;;;29.20;68.20;;;;;;5043525;28;20195;-61
2023/07/04 09:13:45;;;;;;;6.23;1.57;;;29.30;68.10;;;;;;5041545;28;20570;-61
2023/07/04 09:16:18;;;;;;;2.10;1.57;;;29.50;66.90;;;;;;5044310;28;20207;-62
2023/07/04 09:18:52;;;;;;;4.13;1.53;;;29.60;65.50;;;;;;5048103;28;20226;-63
2023/07/04 09:21:22;;;;;;;2.80;1.47;;;29.70;65.10;;;;;;5043166;28;20259;-62
2023/07/04 09:23:51;;;;;;;3.07;1.40;;;29.90;64.70;;;;;;5042605;28;20230;-64
2023/07/04 09:26:27;;;;;;;1.43;1.30;;;30.00;64.90;;;;;;5041353;28;20680;-64
2023/07/04 09:28:56;;;;;;;2.07;1.63;;;30.10;64.10;;;;;;5043600;28;20222;-63
2023/07/04 09:31:32;;;;;;;3.93;1.60;;;30.20;64.40;;;;;;5045178;28;20251;-62
2023/07/04 09:34:05;;;;;;;3.53;1.47;;;30.20;63.90;;;;;;5047202;28;20206;-63
2023/07/04 09:36:39;;;;;;;4.93;1.50;;;30.30;63.50;;;;;;5046301;28;20220;-66
2023/07/04 09:39:08;;;;;;;3.53;1.63;;;30.30;61.30;;;;;;5042208;28;20256;-62
2023/07/04 09:41:39;;;;;;;1.27;1.10;;;30.30;62.10;;;;;;5043338;28;20615;-62
2023/07/04 09:44:32;;;;;;;1.53;1.10;;;30.30;62.90;;;;;;5039440;28;20210;-62
2023/07/04 09:47:01;;;;;;;4.50;1.20;;;30.30;62.10;;;;;;5041269;28;20211;-61
2023/07/04 09:49:35;;;;;;;3.90;1.40;;;30.40;63.40;;;;;;5045172;28;20587;-62
2023/07/04 09:52:23;;;;;;;1.73;1.30;;;30.50;62.70;;;;;;5038182;28;20214;-64
2023/07/04 09:55:34;;;;;;;2.93;1.30;;;30.60;63.10;;;;;;5045406;28;20593;-62
2023/07/04 09:58:18;;;;;;;5.53;1.60;;;30.70;63.60;;;;;;5041234;28;20677;-61
2023/07/04 10:00:59;;;;;;;2.73;1.20;;;30.90;62.60;;;;;;5045537;28;20221;-63
2023/07/04 10:03:26;;;;;;;1.73;1.33;;;30.90;61.80;;;;;;5042811;28;20210;-62
2023/07/04 10:05:54;;;;;;;4.63;1.37;;;31.00;61.10;;;;;;5041887;28;20195;-62
2023/07/04 10:08:21;;;;;;;2.57;1.30;;;31.00;59.90;;;;;;5045851;28;20285;-64
2023/07/04 10:10:53;;;;;;;1.40;1.20;;;31.00;60.10;;;;;;5042946;28;20526;-62
2023/07/04 10:13:25;;;;;;;0.87;0.87;;;31.10;61.50;;;;;;5044925;28;20205;-63
2023/07/04 10:15:52;;;;;;;1.93;1.60;;;31.10;60.00;;;;;;5045638;28;20218;-64
2023/07/04 10:18:31;;;;;;;1.17;1.07;;;31.20;61.00;;;;;;5044294;28;20199;-64
2023/07/04 10:21:00;;;;;;;1.90;1.37;;;31.30;60.00;;;;;;5043182;28;20194;-64
2023/07/04 10:23:30;;;;;;;1.70;1.10;;;31.30;60.00;;;;;;5039870;28;20198;-64
2023/07/04 10:26:00;;;;;;;1.50;1.37;;;31.40;61.30;;;;;;5039791;28;20238;-64
2023/07/04 10:28:28;;;;;;;2.53;1.50;;;31.60;61.60;;;;;;5040735;28;20199;-64
2023/07/04 10:31:02;;;;;;;2.07;1.30;;;31.80;61.00;;;;;;5042783;28;21176;-63
2023/07/04 10:33:52;;;;;;;1.67;1.47;;;31.90;61.00;;;;;;5040056;28;20190;-63
2023/07/04 10:36:28;;;;;;;2.23;1.10;;;32.00;61.20;;;;;;5041134;28;20245;-62
2023/07/04 10:39:08;;;;;;;2.20;1.23;;;32.10;58.70;;;;;;5041861;28;20203;-65
2023/07/04 10:41:55;;;;;;;4.20;1.70;;;32.00;57.20;;;;;;5043409;28;20195;-64
2023/07/04 10:44:30;;;;;;;6.10;1.67;;;32.00;58.10;;;;;;5041351;28;20230;-63
2023/07/04 10:47:02;;;;;;;2.50;1.33;;;32.10;59.30;;;;;;5046735;28;20272;-63
2023/07/04 10:49:34;;;;;;;2.77;1.57;;;32.10;58.20;;;;;;5048312;28;20194;-64
2023/07/04 10:52:24;;;;;;;1.97;1.20;;;32.20;59.10;;;;;;5043107;28;20212;-62
2023/07/04 10:54:52;;;;;;;2.67;1.40;;;32.30;58.60;;;;;;5046185;28;20201;-63
2023/07/04 10:57:32;;;;;;;3.37;1.40;;;32.30;58.40;;;;;;5043223;28;20199;-64
2023/07/04 11:00:12;;;;;;;2.97;1.50;;;32.30;57.70;;;;;;5039321;28;20534;-63
2023/07/04 11:03:00;;;;;;;2.57;1.57;;;32.30;58.50;;;;;;5037021;28;20199;-64
2023/07/04 11:05:37;;;;;;;2.47;1.37;;;32.30;59.40;;;;;;5042782;28;20301;-64
2023/07/04 11:08:18;;;;;;;3.27;1.47;;;32.40;59.20;;;;;;5043730;28;20214;-65
2023/07/04 11:11:08;;;;;;;1.77;1.47;;;32.50;58.70;;;;;;5042807;28;20641;-63
2023/07/04 11:13:52;;;;;;;3.40;1.77;;;32.50;57.70;;;;;;5044586;28;20202;-64
2023/07/04 11:16:27;;;;;;;2.60;1.33;;;32.40;56.30;;;;;;5039706;28;20195;-64
2023/07/04 11:19:25;;;;;;;3.87;1.43;;;32.30;57.50;;;;;;5042752;28;20199;-64
2023/07/04 11:22:13;;;;;;;5.03;1.73;;;32.20;57.40;;;;;;5044096;28;20202;-65
2023/07/04 11:24:46;;;;;;;1.83;1.53;;;32.30;57.80;;;;;;5042061;28;20661;-64
2023/07/04 11:27:19;;;;;;;3.40;1.37;;;32.40;56.70;;;;;;5042697;28;20587;-66
2023/07/04 11:29:55;;;;;;;4.83;1.60;;;32.20;56.90;;;;;;5044991;28;20502;-64
2023/07/04 11:32:28;;;;;;;4.50;1.73;;;32.20;57.40;;;;;;5044011;28;20238;-66
2023/07/04 11:35:09;;;;;;;2.20;1.50;;;32.30;57.90;;;;;;5035551;28;20281;-64
2023/07/04 11:38:01;;;;;;;3.90;1.70;;;32.40;57.50;;;;;;5036802;28;20693;-63
2023/07/04 11:40:49;;;;;;;2.90;1.67;;;32.50;57.70;;;;;;5040180;28;20218;-63
2023/07/04 11:43:34;;;;;;;2.50;1.37;;;32.60;56.50;;;;;;5040257;28;20199;-64
2023/07/04 11:46:02;;;;;;;3.03;1.90;;;32.70;56.30;;;;;;5039327;28;20276;-64
2023/07/04 11:48:31;;;;;;;2.63;1.20;;;32.70;57.00;;;;;;5038724;28;20191;-65
2023/07/04 11:51:11;;;;;;;3.87;1.37;;;32.70;52.40;;;;;;5034485;28;20199;-66
2023/07/04 11:53:53;;;;;;;2.60;1.20;;;32.60;54.50;;;;;;5042173;28;20210;-65
2023/07/04 11:56:26;;;;;;;3.23;1.50;;;32.70;54.80;;;;;;5038022;28;20209;-66
2023/07/04 11:59:12;;;;;;;3.80;1.47;;;32.70;54.20;;;;;;5044610;28;20866;-66
2023/07/04 12:02:03;;;;;;;1.20;1.10;;;32.70;53.40;;;;;;5040368;28;20261;-66
2023/07/04 12:04:33;;;;;;;3.57;1.30;;;32.70;54.30;;;;;;5043358;28;20522;-65
2023/07/04 12:07:22;;;;;;;3.00;1.50;;;32.50;54.00;;;;;;5045773;28;20235;-65
2023/07/04 12:10:07;;;;;;;3.23;1.23;;;32.50;53.40;;;;;;5038283;28;20195;-65
2023/07/04 12:12:37;;;;;;;2.70;1.60;;;32.50;54.90;;;;;;5038628;28;20218;-65
2023/07/04 12:15:19;;;;;;;1.73;1.33;;;32.70;54.70;;;;;;5036326;28;20234;-65
2023/07/04 12:17:49;;;;;;;2.80;1.50;;;32.70;52.10;;;;;;5040790;28;20218;-66
2023/07/04 12:20:18;;;;;;;1.83;1.30;;;32.70;52.80;;;;;;5035754;28;20645;-65
2023/07/04 12:22:55;;;;;;;2.20;1.53;;;32.70;53.30;;;;;;5042759;28;20206;-65
2023/07/04 12:25:38;;;;;;;3.50;1.53;;;32.70;54.00;;;;;;5037027;28;20214;-65
2023/07/04 12:28:05;;;;;;;1.87;1.30;;;32.70;53.80;;;;;;5040115;28;20209;-65
2023/07/04 12:30:32;;;;;;;3.70;1.40;;;32.80;52.70;;;;;;5045293;28;20186;-65
2023/07/04 12:33:02;;;;;;;1.77;1.47;;;32.80;53.90;;;;;;5040475;28;20198;-66
2023/07/04 12:35:38;;;;;;;2.10;1.37;;;32.90;53.40;;;;;;5040297;28;20221;-65
2023/07/04 12:38:06;;;;;;;1.77;1.50;;;33.00;53.40;;;;;;5035703;28;20202;-65
2023/07/04 12:40:34;;;;;;;1.60;1.47;;;33.00;52.90;;;;;;5041727;28;20203;-65
2023/07/04 12:43:03;;;;;;;3.07;1.30;;;33.00;52.80;;;;;;5040186;28;20290;-66
2023/07/04 12:45:33;;;;;;;1.70;1.50;;;33.10;53.80;;;;;;5045117;28;20211;-65
2023/07/04 12:48:04;;;;;;;2.40;1.47;;;33.10;53.10;;;;;;5042073;28;20631;-64
2023/07/04 12:50:34;;;;;;;1.57;1.10;;;33.10;53.40;;;;;;5044554;28;20211;-64
2023/07/04 12:53:03;;;;;;;1.90;1.50;;;33.20;52.90;;;;;;5042780;28;20261;-61
2023/07/04 12:55:36;;;;;;;2.17;1.60;;;33.10;52.40;;;;;;5046118;28;20208;-62
2023/07/04 12:58:05;;;;;;;3.53;1.90;;;33.10;52.90;;;;;;5047363;28;20217;-62
2023/07/04 13:00:33;;;;;;;6.27;1.50;;;33.10;53.30;;;;;;5043900;28;20196;-64
2023/07/04 13:03:04;;;;;;;2.40;1.37;;;33.20;53.40;;;;;;5052863;28;20701;-65
2023/07/04 13:05:47;;;;;;;1.47;1.30;;;33.20;54.20;;;;;;5040968;28;20217;-63
2023/07/04 13:08:22;;;;;;;1.63;1.50;;;33.30;53.10;;;;;;5042623;28;20715;-63
2023/07/04 13:10:52;;;;;;;2.47;1.77;;;33.30;52.20;;;;;;5041779;28;20279;-64